Main page
METAR-TAF:

METAR-TAF

Airports :

Ouarzazate Airport

Ouarzazate, Morocco

latitude: 30-56N, longitude: 006-54W, elevation: 1139 m

Current weather observation

The report was made 34 minutes ago, at 10:00 UTC
Wind 4 kt from the West
Temperature
Pressure 1022 hPa
Visibility: 8000 m

METAR: GMMZ 201000Z 27004KT 8000 NSC 09/1 Q1022 NOSIG

Time: 10:34 (10:34 UTC)

Forecast

The report was made 5 hours and 34 minutes ago, at 05:00 UTC
Forecast valid from 20 at 06 UTC to 21 at 12 UTC
Wind 6 kt from the West
Visibility 10 km or more
no clouds below 1500 m and no cumulonimbus
Temporary
from 20 at 15 UTC to 20 at 23 UTC
Wind 12 kt from the Northeast

TAF: GMMZ 200500Z 2006/2112 28006KT CAVOK TEMPO 2015/2023 04012KT

Weather observations and forecasts of more than 4000 airports (METAR and TAF reports).

The available stations are represented by yellow and red dots on the map.

Hover mouse over dot to see the name of the station.

Then click to see weather observations and forecasts.

To change the map : click on the green buttons with a black cross to zoom in, on the green button with a dash to zoom out, or on the green arrows for adjacent maps.


METAR-TAF: